• Join FlightAware (Why Join?)
  • Login
  • US Flag 
03:15PM EDT


 

Airport Tracker/Info


-or-


 

Live Flight TrackerFlight Track Log ✈ KAP21 ✈ 29-Jun-2013 ✈ KBOS - KACK

Flight Track Log - Related Links

Times and Time Zones

All times are in EDT time to prevent confusion due to time zone crossing. See the KAP21 flight status page for this flight to view local times or setup timezone preferences in your user account.

Time Position Orientation Groundspeed Altitude Reporting Facility
EDT Latitude Longitude Course Direction KTS MPH feet Rate Location/Type
08:14AM 42.3667 -71.0167 216° Southwest 108 124 500  Level KA90
08:14AM 42.3500 -71.0333 216° Southwest 110 127 1,000 720 Climbing KA90
08:15AM 42.3167 -71.0667 216° Southwest 122 140 1,600 540 Climbing KA90
08:16AM 42.2833 -71.0667 180° South 115 132 2,100 420 Climbing KA90
08:17AM 42.2667 -71.0333 124° Southeast 137 158 2,600 420 Climbing KA90
08:19AM 42.2500 -70.9333 103° East 144 166 3,400 420 Climbing KA90
08:21AM 42.1991 -70.8880 109° East  Level Estimated
08:28AM 41.9589 -70.6749 119° Southeast  Level Estimated
08:29AM 41.9847 -70.6320 51° Northeast  Level FlightAware Approximate
08:30AM 41.9493 -70.6039 114° Southeast  Level Estimated
08:31AM 41.9558 -70.5494 81° East  Level FlightAware Approximate
08:32AM 41.9624 -70.4948 81° East  Level FlightAware Approximate
08:33AM 41.9689 -70.4403 81° East  Level FlightAware Approximate
08:34AM 41.9754 -70.3857 81° East  Level FlightAware Approximate
08:35AM 41.9819 -70.3311 81° East  Level FlightAware Approximate
08:36AM 41.9883 -70.2765 81° East  Level FlightAware Approximate
08:37AM 41.9482 -70.2646 180° South  Level Estimated
08:38AM 41.9153 -70.2316 143° Southeast  Level FlightAware Approximate
08:39AM 41.8823 -70.1986 143° Southeast  Level FlightAware Approximate
08:40AM 41.8494 -70.1656 143° Southeast  Level FlightAware Approximate
08:41AM 41.8164 -70.1327 143° Southeast  Level FlightAware Approximate
08:42AM 41.7834 -70.0998 143° Southeast  Level FlightAware Approximate
08:43AM 41.7505 -70.0669 143° Southeast  Level FlightAware Approximate
08:44AM 41.7094 -70.0664 180° South  Level Estimated
08:45AM 41.6693 -70.0543 167° South  Level FlightAware Approximate
08:46AM 41.6292 -70.0422 167° South  Level FlightAware Approximate
08:47AM 41.5882 -70.0441 189° South  Level Estimated
08:48AM 41.5471 -70.0475 184° South  Level FlightAware Approximate
08:49AM 41.5061 -70.0493 180° South  Level Estimated
08:50AM 41.4650 -70.0511 180° South  Level Estimated
08:51AM 41.4239 -70.0508 180° South  Level FlightAware Approximate
08:52AM 41.3828 -70.0505 180° South  Level FlightAware Approximate
08:53AM 41.3417 -70.0502 180° South  Level FlightAware Approximate
08:54AM 41.3008 -70.0549 180° South  Level Estimated
08:55AM 41.2598 -70.0509 176° South  Level FlightAware Approximate
08:56AM 41.2500 -70.0500 180° South  Level FlightAware Approximate
08:57AM 41.2531 -70.0603 180° South  Level Estimated
08:58AM 41.2531 -70.0603 180° South  Level Estimated
08:59AM 41.2531 -70.0603 180° South  Level Estimated
09:00AM 41.2531 -70.0603 180° South  Level Estimated
09:01AM 41.2531 -70.0603 180° South  Level Estimated
09:02AM 41.2531 -70.0603 180° South  Level Estimated
09:03AM 41.2531 -70.0603 180° South  Level Estimated
09:04AM 41.2531 -70.0603 180° South  Level Estimated